createdAt,value
2023-05-25T00:01:54.339Z,83.15
2023-05-25T00:04:26.991Z,83.33
2023-05-25T00:06:54.934Z,83.65
2023-05-25T00:09:24.745Z,83.88
2023-05-25T00:11:53.044Z,83.58
2023-05-25T00:14:21.356Z,84.08
2023-05-25T00:16:49.375Z,84.16
2023-05-25T00:19:18.651Z,83.99
2023-05-25T00:21:48.353Z,84.21
2023-05-25T00:24:16.051Z,84.38
2023-05-25T00:26:43.728Z,84.62
2023-05-25T00:29:12.787Z,84.67
2023-05-25T00:31:40.574Z,85.02
2023-05-25T00:34:09.073Z,84.61
2023-05-25T00:36:36.889Z,84.64
2023-05-25T00:39:04.641Z,85.13
2023-05-25T00:41:33.505Z,85.34
2023-05-25T00:44:01.229Z,84.92
2023-05-25T00:46:29.784Z,84.61
2023-05-25T00:48:57.654Z,84.89
2023-05-25T00:51:26.836Z,85.18
2023-05-25T00:53:54.583Z,85.61
2023-05-25T00:56:28.483Z,85.76
2023-05-25T00:59:00.899Z,85.82
2023-05-25T01:01:33.719Z,85.53
2023-05-25T01:04:03.385Z,85.23
2023-05-25T01:06:33.379Z,85.77
2023-05-25T01:09:04.328Z,85.27
2023-05-25T01:11:35.109Z,85.40
2023-05-25T01:14:03.462Z,85.48
2023-05-25T01:16:32.118Z,85.76
2023-05-25T01:19:02.927Z,85.72
2023-05-25T01:22:11.179Z,85.38
2023-05-25T01:24:56.203Z,85.63
2023-05-25T01:27:46.990Z,85.44
2023-05-25T01:30:16.966Z,85.58
2023-05-25T01:32:45.692Z,85.80
2023-05-25T01:35:14.895Z,85.94
2023-05-25T01:37:46.859Z,86.15
2023-05-25T01:40:15.741Z,85.97
2023-05-25T01:42:43.539Z,85.37
2023-05-25T01:45:13.418Z,85.22
2023-05-25T01:48:13.649Z,85.42
2023-05-25T01:50:53.682Z,85.19
2023-05-25T01:53:45.832Z,85.36
2023-05-25T01:56:14.430Z,85.48
2023-05-25T01:58:47.311Z,85.60
2023-05-25T02:01:17.253Z,85.23
2023-05-25T02:03:49.063Z,85.44
2023-05-25T02:06:17.008Z,85.61
2023-05-25T02:08:45.831Z,85.80
2023-05-25T02:11:14.794Z,86.00
2023-05-25T02:13:42.664Z,85.83
2023-05-25T02:16:10.493Z,85.78
2023-05-25T02:18:38.284Z,85.75
2023-05-25T02:21:06.050Z,86.17
2023-05-25T02:23:33.750Z,85.92
2023-05-25T02:26:01.429Z,86.03
2023-05-25T02:28:29.237Z,85.99
2023-05-25T02:30:56.941Z,85.56
2023-05-25T02:33:24.713Z,86.07
2023-05-25T02:35:52.393Z,86.27
2023-05-25T02:38:20.185Z,86.16
2023-05-25T02:40:47.906Z,86.09
2023-05-25T02:43:15.716Z,86.21
2023-05-25T02:45:44.968Z,86.06
2023-05-25T02:48:13.528Z,86.05
2023-05-25T02:50:42.186Z,86.29
2023-05-25T02:53:12.506Z,86.55
2023-05-25T02:55:40.557Z,86.68
2023-05-25T02:58:10.442Z,86.86
2023-05-25T03:00:50.771Z,86.96
2023-05-25T03:03:18.992Z,87.14
2023-05-25T03:05:49.136Z,86.89
2023-05-25T03:08:17.350Z,86.92
2023-05-25T03:10:45.518Z,86.87
2023-05-25T03:13:13.384Z,86.89
2023-05-25T03:15:41.109Z,86.95
2023-05-25T03:18:08.920Z,86.92
2023-05-25T03:20:38.504Z,86.96
2023-05-25T03:23:06.421Z,86.60
2023-05-25T03:25:34.392Z,86.51
2023-05-25T03:28:02.357Z,86.19
2023-05-25T03:30:30.687Z,86.01
2023-05-25T03:32:58.866Z,86.37
2023-05-25T03:35:30.829Z,86.65
2023-05-25T03:37:58.653Z,86.40
2023-05-25T03:40:26.423Z,86.28
2023-05-25T03:42:55.392Z,86.10
2023-05-25T03:45:23.167Z,86.12
2023-05-25T03:47:52.028Z,86.13
2023-05-25T03:50:21.445Z,86.32
2023-05-25T03:52:49.630Z,86.27
2023-05-25T03:55:17.803Z,86.05
2023-05-25T03:57:45.932Z,85.94
2023-05-25T04:00:14.606Z,85.77
2023-05-25T04:02:43.814Z,85.63
2023-05-25T04:05:11.641Z,85.71
2023-05-25T04:07:40.756Z,85.88
2023-05-25T04:10:09.207Z,85.80
2023-05-25T04:12:37.710Z,85.74
2023-05-25T04:15:09.201Z,85.73
2023-05-25T04:17:46.796Z,85.74
2023-05-25T04:20:14.585Z,85.52
2023-05-25T04:22:43.960Z,85.60
2023-05-25T04:25:11.675Z,85.53
2023-05-25T04:27:39.344Z,85.33
2023-05-25T04:30:11.180Z,85.81
2023-05-25T04:33:03.054Z,85.88
2023-05-25T04:35:36.802Z,85.84
2023-05-25T04:38:05.048Z,85.69
2023-05-25T04:40:35.489Z,85.69
2023-05-25T04:43:05.128Z,85.37
2023-05-25T04:45:33.428Z,85.56
2023-05-25T04:48:03.090Z,85.60
2023-05-25T04:50:30.924Z,85.31
2023-05-25T04:52:58.685Z,85.43
2023-05-25T04:55:26.535Z,85.69
2023-05-25T04:57:55.343Z,85.82
2023-05-25T05:00:24.046Z,85.75
2023-05-25T05:02:56.609Z,85.48
2023-05-25T05:05:24.813Z,85.37
2023-05-25T05:07:54.004Z,85.37
2023-05-25T05:10:22.083Z,85.23
2023-05-25T05:12:54.251Z,85.42
2023-05-25T05:15:22.200Z,85.43
2023-05-25T05:17:50.918Z,85.36
2023-05-25T05:20:19.037Z,85.10
2023-05-25T05:22:46.961Z,85.06
2023-05-25T05:25:14.798Z,85.24
2023-05-25T05:27:42.508Z,85.19
2023-05-25T05:30:33.086Z,85.30
2023-05-25T05:33:01.865Z,85.26
2023-05-25T05:35:32.942Z,85.46
2023-05-25T05:38:10.969Z,85.11
2023-05-25T05:40:39.116Z,84.94
2023-05-25T05:43:10.967Z,84.82
2023-05-25T05:45:38.965Z,84.63
2023-05-25T05:48:11.283Z,84.80
2023-05-25T05:50:42.044Z,84.75
2023-05-25T05:53:11.356Z,84.65
2023-05-25T05:55:39.369Z,84.78
2023-05-25T05:58:07.060Z,84.83
2023-05-25T06:00:34.815Z,84.99
2023-05-25T06:03:02.620Z,84.67
2023-05-25T06:05:31.255Z,84.74
2023-05-25T06:07:59.294Z,84.51
2023-05-25T06:10:27.005Z,84.42
2023-05-25T06:12:54.932Z,84.28
2023-05-25T06:15:22.744Z,84.16
2023-05-25T06:17:51.397Z,84.05
2023-05-25T06:20:19.278Z,83.87
2023-05-25T06:22:47.252Z,83.87
2023-05-25T06:25:16.527Z,83.88
2023-05-25T06:27:44.805Z,83.74
2023-05-25T06:30:13.014Z,83.62
2023-05-25T06:32:43.249Z,83.68
2023-05-25T06:35:17.374Z,83.56
2023-05-25T06:37:49.772Z,83.71
2023-05-25T06:40:19.170Z,83.87
2023-05-25T06:42:47.048Z,83.79
2023-05-25T06:45:42.156Z,83.76
2023-05-25T06:48:10.064Z,83.63
2023-05-25T06:50:37.873Z,83.61
2023-05-25T06:53:06.158Z,83.66
2023-05-25T06:55:33.825Z,83.63
2023-05-25T06:58:01.492Z,83.53
2023-05-25T07:00:29.280Z,83.43
2023-05-25T07:02:57.060Z,83.39
2023-05-25T07:05:24.992Z,83.36
2023-05-25T07:07:52.811Z,83.09
2023-05-25T07:10:20.612Z,83.14
2023-05-25T07:12:48.307Z,83.02
2023-05-25T07:15:16.397Z,82.84
2023-05-25T07:17:45.186Z,82.62
2023-05-25T07:20:13.337Z,82.70
2023-05-25T07:22:42.239Z,82.79
2023-05-25T07:25:10.159Z,82.53
2023-05-25T07:27:38.013Z,82.49
2023-05-25T07:30:06.617Z,82.66
2023-05-25T07:32:34.477Z,82.45
2023-05-25T07:35:03.442Z,82.16
2023-05-25T07:37:31.238Z,82.08
2023-05-25T07:39:58.915Z,81.98
2023-05-25T07:42:33.757Z,81.93
2023-05-25T07:45:02.234Z,81.87
2023-05-25T07:47:30.139Z,81.71
2023-05-25T07:49:58.148Z,81.70
2023-05-25T07:52:25.866Z,81.60
2023-05-25T07:54:53.850Z,81.52
2023-05-25T07:57:21.774Z,81.33
2023-05-25T07:59:49.558Z,81.34
2023-05-25T08:02:17.296Z,80.89
2023-05-25T08:04:45.274Z,81.29
2023-05-25T08:07:13.740Z,80.97
2023-05-25T08:09:41.494Z,80.68
2023-05-25T08:12:30.757Z,80.34
2023-05-25T08:14:56.749Z,79.96
2023-05-25T08:17:24.823Z,80.18
2023-05-25T08:19:52.652Z,79.71
2023-05-25T08:22:20.390Z,79.42
2023-05-25T08:24:48.104Z,79.31
2023-05-25T08:27:16.612Z,78.90
2023-05-25T08:29:44.298Z,78.76
2023-05-25T08:32:12.148Z,78.75
2023-05-25T08:34:41.963Z,78.65
2023-05-25T08:37:09.654Z,78.62
2023-05-25T08:39:37.372Z,78.79
2023-05-25T08:42:07.076Z,78.54
2023-05-25T08:44:36.861Z,78.36
2023-05-25T08:47:08.251Z,78.19
2023-05-25T08:49:38.861Z,78.01
2023-05-25T08:52:13.577Z,77.39
2023-05-25T08:54:45.212Z,77.03
2023-05-25T08:57:44.624Z,76.64
2023-05-25T09:00:15.681Z,76.18
2023-05-25T09:03:02.399Z,76.00
2023-05-25T09:05:30.767Z,75.75
2023-05-25T09:07:58.995Z,75.03
2023-05-25T09:10:28.031Z,74.65
2023-05-25T09:12:56.297Z,74.44
2023-05-25T09:15:24.105Z,75.01
2023-05-25T09:17:51.882Z,74.58
2023-05-25T09:20:20.290Z,74.16
2023-05-25T09:22:48.222Z,74.44
2023-05-25T09:25:22.732Z,73.96
2023-05-25T09:27:51.731Z,73.07
2023-05-25T09:30:19.554Z,72.53
2023-05-25T09:32:47.348Z,71.47
2023-05-25T09:35:15.861Z,70.61
2023-05-25T09:37:45.200Z,69.66
2023-05-25T09:40:14.797Z,68.85
2023-05-25T09:42:43.137Z,67.63
2023-05-25T09:45:11.149Z,66.64
2023-05-25T09:47:40.611Z,66.43
2023-05-25T09:50:09.217Z,66.58
2023-05-25T09:52:37.056Z,66.10
2023-05-25T09:55:10.399Z,65.54
2023-05-25T09:57:39.048Z,65.08
2023-05-25T10:00:08.612Z,63.72
2023-05-25T10:02:39.388Z,64.02
2023-05-25T10:05:09.358Z,63.75
2023-05-25T10:07:40.413Z,65.10
2023-05-25T10:10:10.277Z,65.34
2023-05-25T10:12:41.052Z,64.47
2023-05-25T10:15:12.639Z,63.69
2023-05-25T10:17:45.951Z,63.39
2023-05-25T10:20:15.701Z,63.05
2023-05-25T10:23:08.244Z,62.65
2023-05-25T10:25:46.832Z,62.90
2023-05-25T10:28:22.007Z,62.27
2023-05-25T10:30:51.022Z,61.50
2023-05-25T10:33:21.048Z,60.77
2023-05-25T10:36:08.567Z,60.04
2023-05-25T10:38:40.192Z,59.21
2023-05-25T10:41:11.200Z,58.38
2023-05-25T10:43:41.038Z,55.49
2023-05-25T10:46:09.571Z,54.53
2023-05-25T10:48:38.637Z,54.36
2023-05-25T10:51:11.812Z,54.62
2023-05-25T10:53:45.914Z,54.50
2023-05-25T10:56:14.576Z,54.10
2023-05-25T10:58:44.293Z,54.46
2023-05-25T11:01:13.935Z,54.37
2023-05-25T11:03:45.330Z,54.17
2023-05-25T11:06:17.836Z,53.87
2023-05-25T11:09:06.592Z,54.67
2023-05-25T11:11:43.255Z,54.35
2023-05-25T11:14:27.756Z,53.76
2023-05-25T11:17:13.120Z,53.40
2023-05-25T11:19:50.777Z,53.44
2023-05-25T11:22:23.001Z,54.14
2023-05-25T11:24:52.436Z,54.26
2023-05-25T11:27:24.373Z,53.45
2023-05-25T11:29:53.744Z,52.54
2023-05-25T11:32:23.011Z,52.54
2023-05-25T11:34:54.023Z,52.42
2023-05-25T12:01:23.565Z,44.29
2023-05-25T12:03:56.944Z,45.28
2023-05-25T12:06:33.270Z,45.64
2023-05-25T12:09:01.025Z,45.41
2023-05-25T12:11:35.831Z,45.37
2023-05-25T12:14:04.385Z,45.43
2023-05-25T12:16:34.145Z,45.67
2023-05-25T12:19:01.363Z,44.93
2023-05-25T12:21:28.275Z,45.14
2023-05-25T12:23:55.279Z,44.87
2023-05-25T12:26:22.100Z,44.73
2023-05-25T12:29:06.544Z,45.16
2023-05-25T12:31:34.993Z,45.46
2023-05-25T12:34:05.920Z,45.39
2023-05-25T12:36:52.554Z,45.47
2023-05-25T12:39:31.117Z,45.16
2023-05-25T12:42:00.032Z,44.83
2023-05-25T12:44:28.175Z,44.43
2023-05-25T12:46:55.565Z,44.38
2023-05-25T12:49:30.750Z,44.53
2023-05-25T12:51:58.840Z,45.02
2023-05-25T12:54:54.348Z,45.09
2023-05-25T12:57:20.834Z,45.31
2023-05-25T12:59:47.574Z,45.96
2023-05-25T13:02:14.460Z,46.12
2023-05-25T13:04:41.440Z,45.94
2023-05-25T13:07:09.329Z,46.31
2023-05-25T13:09:36.434Z,46.40
2023-05-25T13:12:03.995Z,46.25
2023-05-25T13:14:30.486Z,46.43
2023-05-25T13:16:57.364Z,46.51
2023-05-25T13:19:25.302Z,46.62
2023-05-25T13:21:52.461Z,47.37
2023-05-25T13:24:19.151Z,47.47
2023-05-25T13:26:48.175Z,47.14
2023-05-25T13:29:16.713Z,47.17
2023-05-25T13:31:43.379Z,47.17
2023-05-25T13:34:10.095Z,47.54
2023-05-25T13:36:36.549Z,47.71
2023-05-25T13:39:04.607Z,47.64
2023-05-25T13:41:31.754Z,47.25
2023-05-25T13:43:59.877Z,46.92
2023-05-25T13:46:34.149Z,46.93
2023-05-25T13:49:01.764Z,47.56
2023-05-25T13:51:28.226Z,47.77
2023-05-25T13:53:55.013Z,47.48
2023-05-25T13:56:21.734Z,47.58
2023-05-25T13:58:48.367Z,48.02
2023-05-25T14:01:15.063Z,48.21
2023-05-25T14:03:42.163Z,48.60
2023-05-25T14:06:09.010Z,48.69
2023-05-25T14:08:35.467Z,48.36
2023-05-25T14:11:02.417Z,48.57
2023-05-25T14:13:28.963Z,49.03
2023-05-25T14:15:55.646Z,49.44
2023-05-25T14:18:22.206Z,50.09
2023-05-25T14:20:49.114Z,49.46
2023-05-25T14:23:16.656Z,48.98
2023-05-25T14:25:46.354Z,49.23
2023-05-25T14:28:13.138Z,49.34
2023-05-25T14:30:39.729Z,49.93
2023-05-25T14:33:07.052Z,50.05
2023-05-25T14:35:33.777Z,49.74
2023-05-25T14:38:00.239Z,49.56
2023-05-25T14:40:26.747Z,49.71
2023-05-25T14:42:54.831Z,50.04
2023-05-25T14:45:21.231Z,50.07
2023-05-25T14:47:47.968Z,50.45
2023-05-25T14:50:14.482Z,50.56
2023-05-25T14:52:41.339Z,51.28
2023-05-25T14:55:13.114Z,51.58
2023-05-25T15:10:32.168Z,52.39
2023-05-25T15:13:00.054Z,52.45
2023-05-25T15:15:28.024Z,52.63
2023-05-25T15:17:55.936Z,52.27
2023-05-25T15:20:24.005Z,51.95
2023-05-25T15:22:53.963Z,52.07
2023-05-25T15:25:34.935Z,52.10
2023-05-25T15:28:04.111Z,52.52
2023-05-25T15:30:33.252Z,52.68
2023-05-25T15:33:02.086Z,52.72
2023-05-25T15:35:32.862Z,53.14
2023-05-25T15:38:01.506Z,52.94
2023-05-25T15:40:29.702Z,53.51
2023-05-25T15:42:58.018Z,53.33
2023-05-25T15:45:26.436Z,53.91
2023-05-25T15:47:54.420Z,53.67
2023-05-25T15:50:22.254Z,53.69
2023-05-25T15:52:50.301Z,54.10
2023-05-25T15:55:18.307Z,53.55
2023-05-25T15:57:46.240Z,53.08
2023-05-25T16:00:14.548Z,52.85
2023-05-25T16:02:42.297Z,52.77
2023-05-25T16:05:10.125Z,52.42
2023-05-25T16:07:37.965Z,52.27
2023-05-25T16:10:06.356Z,52.53
2023-05-25T16:12:34.125Z,51.85
2023-05-25T16:15:01.909Z,51.85
2023-05-25T16:17:30.150Z,52.34
2023-05-25T16:19:58.067Z,52.16
2023-05-25T16:22:26.244Z,52.15
2023-05-25T16:24:54.280Z,52.38
2023-05-25T16:27:22.058Z,52.20
2023-05-25T16:29:50.026Z,52.33
2023-05-25T16:32:18.534Z,52.21
2023-05-25T16:34:46.901Z,52.36
2023-05-25T16:37:14.847Z,52.44
2023-05-25T16:39:42.810Z,52.65
2023-05-25T16:42:10.830Z,52.71
2023-05-25T16:44:38.852Z,53.13
2023-05-25T16:47:06.735Z,53.12
2023-05-25T16:49:34.957Z,53.39
2023-05-25T16:52:03.044Z,53.63
2023-05-25T16:54:31.211Z,54.07
2023-05-25T16:56:59.359Z,54.51
2023-05-25T16:59:27.247Z,54.98
2023-05-25T17:01:55.881Z,55.50
2023-05-25T17:04:23.742Z,55.42
2023-05-25T17:06:51.791Z,55.29
2023-05-25T17:09:21.186Z,55.09
2023-05-25T17:11:48.982Z,55.36
2023-05-25T17:14:17.120Z,56.33
2023-05-25T17:16:44.957Z,56.36
2023-05-25T17:19:15.001Z,56.76
2023-05-25T17:21:43.567Z,56.74
2023-05-25T17:24:11.358Z,57.17
2023-05-25T17:26:39.222Z,57.86
2023-05-25T17:29:07.545Z,57.96
2023-05-25T17:31:35.507Z,58.05
2023-05-25T17:34:03.969Z,57.97
2023-05-25T17:36:32.388Z,58.50
2023-05-25T17:39:00.620Z,58.76
2023-05-25T17:41:29.530Z,58.96
2023-05-25T17:43:57.958Z,59.48
2023-05-25T17:46:26.337Z,60.19
2023-05-25T17:48:54.813Z,60.49
2023-05-25T17:51:22.965Z,60.76
2023-05-25T17:53:51.439Z,60.78
2023-05-25T17:56:19.871Z,61.24
2023-05-25T17:58:48.485Z,61.89
2023-05-25T18:01:17.162Z,61.84
2023-05-25T18:03:45.801Z,61.90
2023-05-25T18:06:15.146Z,61.97
2023-05-25T18:08:44.272Z,62.36
2023-05-25T18:11:12.392Z,62.75
2023-05-25T18:13:40.686Z,63.01
2023-05-25T18:16:09.296Z,63.16
2023-05-25T18:18:37.104Z,62.93
2023-05-25T18:21:05.803Z,63.44
2023-05-25T18:23:34.332Z,63.80
2023-05-25T18:26:04.394Z,64.22
2023-05-25T18:28:32.589Z,64.55
2023-05-25T18:31:00.742Z,64.88
2023-05-25T18:33:29.762Z,65.18
2023-05-25T18:35:58.105Z,64.90
2023-05-25T18:38:26.054Z,65.38
2023-05-25T18:40:54.064Z,65.70
2023-05-25T18:43:22.441Z,66.20
2023-05-25T18:45:50.672Z,66.52
2023-05-25T18:48:19.869Z,66.91
2023-05-25T18:50:48.286Z,67.40
2023-05-25T18:53:17.097Z,67.61
2023-05-25T18:55:45.998Z,67.94
2023-05-25T18:58:14.456Z,68.22
2023-05-25T19:00:42.224Z,68.50
2023-05-25T19:03:11.011Z,68.71
2023-05-25T19:05:39.300Z,69.04
2023-05-25T19:08:08.330Z,69.25
2023-05-25T19:10:36.482Z,69.44
2023-05-25T19:13:06.724Z,69.91
2023-05-25T19:15:35.002Z,70.06
2023-05-25T19:18:04.630Z,70.34
2023-05-25T19:20:33.963Z,70.62
2023-05-25T19:23:04.354Z,70.90
2023-05-25T19:25:32.613Z,71.21
2023-05-25T19:28:02.876Z,71.45
2023-05-25T19:30:32.249Z,71.71
2023-05-25T19:33:00.496Z,72.13
2023-05-25T19:35:28.770Z,72.21
2023-05-25T19:37:56.536Z,72.61
2023-05-25T19:40:24.824Z,72.95
2023-05-25T19:42:53.078Z,73.15
2023-05-25T19:45:21.080Z,73.45
2023-05-25T19:47:50.019Z,73.53
2023-05-25T19:50:19.195Z,73.74
2023-05-25T19:52:47.847Z,73.75
2023-05-25T19:55:15.974Z,73.98
2023-05-25T19:57:46.315Z,74.17
2023-05-25T20:00:25.537Z,74.47
2023-05-25T20:02:55.891Z,74.38
2023-05-25T20:05:24.582Z,74.36
2023-05-25T20:07:52.797Z,74.60
2023-05-25T20:10:20.779Z,74.76
2023-05-25T20:12:49.034Z,74.96
2023-05-25T20:15:18.429Z,75.14
2023-05-25T20:17:46.466Z,75.27
2023-05-25T20:20:15.706Z,75.11
2023-05-25T20:22:43.926Z,74.71
2023-05-25T20:25:12.273Z,75.10
2023-05-25T20:27:40.107Z,75.26
2023-05-25T20:30:08.827Z,75.26
2023-05-25T20:32:38.479Z,75.40
2023-05-25T20:35:06.600Z,75.67
2023-05-25T20:37:35.393Z,75.63
2023-05-25T20:40:06.631Z,75.37
2023-05-25T20:42:34.508Z,75.80
2023-05-25T20:45:02.390Z,76.07
2023-05-25T20:47:30.662Z,76.09
2023-05-25T20:49:59.229Z,76.28
2023-05-25T20:52:26.984Z,76.25
2023-05-25T20:54:54.975Z,76.35
2023-05-25T20:57:22.866Z,76.40
2023-05-25T20:59:51.739Z,76.52
2023-05-25T21:02:20.093Z,76.87
2023-05-25T21:04:48.115Z,76.31
2023-05-25T21:07:15.960Z,77.00
2023-05-25T21:09:43.714Z,77.15
2023-05-25T21:12:11.559Z,77.21
2023-05-25T21:14:39.377Z,76.92
2023-05-25T21:17:07.177Z,77.47
2023-05-25T21:19:34.966Z,77.37
2023-05-25T21:22:02.939Z,77.56
2023-05-25T21:24:30.860Z,77.74
2023-05-25T21:26:58.706Z,77.89
2023-05-25T21:29:26.414Z,77.88
2023-05-25T21:31:54.237Z,77.94
2023-05-25T21:34:22.288Z,78.18
2023-05-25T21:36:50.177Z,78.45
2023-05-25T21:39:18.144Z,78.70
2023-05-25T21:41:45.900Z,78.81
2023-05-25T21:44:13.708Z,78.78
2023-05-25T21:46:41.486Z,78.96
2023-05-25T21:49:09.264Z,78.89
2023-05-25T21:51:37.376Z,78.65
2023-05-25T21:54:05.405Z,78.34
2023-05-25T21:56:33.960Z,78.00
2023-05-25T21:59:01.674Z,77.79
2023-05-25T22:01:29.545Z,77.56
2023-05-25T22:03:57.482Z,77.22
2023-05-25T22:06:25.341Z,77.06
2023-05-25T22:08:53.108Z,77.44
2023-05-25T22:11:22.181Z,77.45
2023-05-25T22:13:50.371Z,77.53
2023-05-25T22:16:18.215Z,76.54
2023-05-25T22:18:46.022Z,76.57
2023-05-25T22:21:14.815Z,76.17
2023-05-25T22:23:42.567Z,76.28
2023-05-25T22:26:10.379Z,76.86
2023-05-25T22:28:38.179Z,76.71
2023-05-25T22:31:06.036Z,76.79
2023-05-25T22:33:33.856Z,76.97
2023-05-25T22:36:01.714Z,77.03
2023-05-25T22:38:29.532Z,77.16
2023-05-25T22:40:57.320Z,77.10
2023-05-25T22:43:26.997Z,77.08
2023-05-25T22:45:54.762Z,76.67
2023-05-25T22:48:22.472Z,75.98
2023-05-25T22:50:50.292Z,76.26
2023-05-25T22:53:18.129Z,76.60
2023-05-25T22:55:47.554Z,76.87
2023-05-25T22:58:16.574Z,77.12
2023-05-25T23:00:44.370Z,76.97
2023-05-25T23:03:12.293Z,77.21
2023-05-25T23:05:40.234Z,77.36
2023-05-25T23:08:09.314Z,77.44
2023-05-25T23:10:37.014Z,77.05
2023-05-25T23:13:06.288Z,76.73
2023-05-25T23:15:40.069Z,77.28
2023-05-25T23:18:08.288Z,77.66
2023-05-25T23:20:36.219Z,77.91
2023-05-25T23:23:04.167Z,78.10
2023-05-25T23:25:32.131Z,78.11
2023-05-25T23:27:59.912Z,78.30
2023-05-25T23:30:27.694Z,78.55
2023-05-25T23:32:55.575Z,78.77
2023-05-25T23:35:23.635Z,78.94
2023-05-25T23:37:52.179Z,79.11
2023-05-25T23:40:19.988Z,79.38
2023-05-25T23:42:48.933Z,79.31
2023-05-25T23:45:16.851Z,79.32
2023-05-25T23:47:44.885Z,79.36
2023-05-25T23:50:12.721Z,79.36
2023-05-25T23:52:41.543Z,79.40
2023-05-25T23:55:10.941Z,79.51
2023-05-25T23:57:39.356Z,79.48
